Ash Hill, North Carolina
Current Conditions -  °F | °C
As of 7:55 AM on Tuesday 21 Oct 2014 (Local Time) from KMWK Reporting Station
Clear Clear  
Wind Chill: 47°   Ceiling: Unl
Heat Index: 47°   Visibility: 10mi
Dew Point: 45°   Wind: 0mph
Humidity: 93%   Direction: NA
Pressure: 29.95"   Gusts: NA
Location:  36.3687°N, 80.588°W
Report Text: KMWK 211155Z AUTO 00000KT 10SM CLR 08/07 A2995 RMK AO2 T00810070 10101 20072
Loading
Personal Weather Stations






























Interactive Weather Map New forecast layout! Learn more

10-Day Weather Forecast

Advertisements
Track Severe Weather on mobile